Terminal Aerodrome Forecast
Issued by NWS Miami, FL

Home | Current Version | Previous Version | Text Only | Print | Product List | Glossary On
Versions: 1 2 3 4 5 6 7 8 9 10 11 12 13 14 15 16 17 18 19 20 21 22 23 24 25 26 27
000
FTUS42 KMFL 212338
TAFPBI
TAF
KPBI 212338Z 2200/2224 12012KT P6SM SCT035 BKN050 BKN250
     FM220100 13008KT P6SM SCT050 BKN250
     FM221100 14012KT P6SM SCT030 BKN050 OVC100
     FM221400 15015G25KT P6SM SHRA BKN030 OVC050 PROB30 2219/2224
      3SM TSRA BKN030CB=

USA.gov is the U.S. government's official web portal to all federal, state and local government web resources and services.